DONNÉES MÉTÉO

HIER
Time Temp. Dewp. Hum. Directi La vitess Wind gust Bar. 1h Prec. 24h Prec.
00:05 4.1 2 86 45 0.3 1.1 995.9 0.9090 0.1000
00:24 4.1 2.1 87 52 0.3 1.4 995.5 0.8080 0.3000
00:35 4.1 2.1 87 21 0.3 1.7 995.2 0.6060 0.4000
00:45 4.2 2.2 87 55 0.3 2.2 995.6 0.4040 0.4000
00:55 4.1 2.1 87 100 0.8 1.7 995.1 0.3030 0.4000
01:04 4.1 2.1 87 45 0.3 1.1 995.1 0.3030 0.5000
01:15 4.2 2.2 87 0 0.8 995 0.3030 0.6000
01:25 4.3 2.5 88 156 0.3 1.4 995.1 0.3030 0.7000
01:35 4.3 2.3 87 45 0.3 1.1 994.8 0.3030 0.7000
01:45 4.3 2.3 87 75 0.8 1.4 995 0.3030 0.7000
01:55 4.3 2.3 87 71 0.8 2.2 995 0.3030 0.8000
02:05 4.4 2.4 87 45 0.3 1.7 994.7 0.3030 0.8000
02:15 4.3 2.2 86 33 0.3 1.1 994.4 0.3030 0.9000
02:26 4.3 2.3 87 30 0.3 1.4 994.7 0.2020 0.9000
02:35 4.3 2.3 87 32 0.8 3.9 994.3 0.2020 0.9000
02:45 4.3 2.3 87 47 0.8 2.2 994.1 0.1010 0.9000
02:55 4.3 2.2 86 51 0.8 2.2 993.8 0.1010 0.9000
03:06 4.3 2.3 87 90 0.3 1.4 993.7 0.1010 0.9000
03:15 4.4 2.3 86 126 0.8 4.2 993.9 0.1010 1.0000
03:25 4.4 2.3 86 135 0.8 3.1 994.1 0.1010 1.0000
03:36 4.4 2.3 86 51 0.3 1.7 994 0.1010 1.0000
03:46 4.4 2.3 86 57 0.8 2.2 994.2 0.1010 1.0000
03:56 4.3 2.2 86 72 0.8 3.6 994.4 0.1010 1.0000
04:06 4.3 2.3 87 66 0.8 2.2 994.6 0.2020 1.1000
04:16 4.3 2.3 87 90 0.3 1.4 994.4 0.1010 1.1000
04:26 4.3 2.3 87 50 0.3 1.4 994.6 0.1010 1.1000
04:36 4.4 2.4 87 90 0.3 1.1 994.6 0.1010 1.1000
04:47 4.4 2.3 86 55 1.1 2.5 994.2 0.1010 1.1000
04:56 4.5 2.4 86 45 0.3 1.1 994.4 0.1010 1.1000
05:06 4.4 2.1 85 45 0.8 1.7 994.4 0.0000 1.1000
05:16 4.5 2.4 86 35 0.3 1.4 994.4 0.0000 1.1000
05:27 4.5 2.4 86 63 0.8 2.5 994.3 0.0000 1.1000
05:36 4.5 2.2 85 63 0.8 2.5 994.4 0.0000 1.1000
05:46 4.6 2.1 84 68 0.8 2.5 994.3 0.0000 1.1000
05:57 4.7 2.2 84 61 0.8 2.2 994.3 0.1010 1.2000
06:07 4.7 2.2 84 61 0.8 2.5 994.2 0.1010 1.2000
06:16 4.7 2.2 84 45 0.8 2.5 994.1 0.1010 1.2000
06:27 4.8 2.2 83 54 0.8 2.5 994.1 0.1010 1.2000
06:37 4.9 2.3 83 117 1.1 4.4 994.1 0.1010 1.2000
06:47 4.8 2.2 83 120 0.8 2.8 994.4 0.1010 1.2000
06:57 4.7 2.1 83 32 1.1 4.2 994.4 0.0000 1.2000
07:07 4.6 2 83 45 0.3 1.4 994.4 0.0000 1.2000
07:17 4.5 2 84 39 0.8 1.7 994.6 0.0000 1.2000
07:27 4.5 2.2 85 344 0.3 1.7 994.6 0.0000 1.2000
07:37 4.6 2.3 85 58 0.8 1.7 994.3 0.0000 1.2000
07:47 4.6 2.3 85 90 0.3 1.4 994.8 0.0000 1.2000
07:57 4.6 2.3 85 33 0.3 1.4 994.8 0.0000 1.2000
08:07 4.7 2.6 86 135 0.3 1.1 994.9 0.0000 1.2000
08:18 4.8 2.7 86 156 0.3 1.1 995.1 0.0000 1.2000
08:28 4.9 2.8 86 90 0.3 0.8 995.1 0.0000 1.2000
08:37 5 2.9 86 36 0.3 1.4 995.2 0.0000 1.2000
08:48 5 2.7 85 45 0.3 1.1 995.2 0.0000 1.2000
08:58 5 2.9 86 90 0.3 1.1 995.2 0.0000 1.2000
09:08 5.1 3 86 90 0.3 1.1 995.5 0.0000 1.2000
09:18 5.2 2.9 85 26 0.3 1.4 995.4 0.0000 1.2000
09:28 5.3 3 85 49 0.3 2.2 995.4 0.0000 1.2000
09:38 5.5 3.2 85 90 0.3 1.7 995.4 0.0000 1.2000
09:48 5.8 3.5 85 90 0.3 1.1 995.6 0.0000 1.2000
09:58 6.1 3.8 85 143 0.3 1.7 995.6 0.0000 1.2000
10:08 6.4 4.1 85 128 0.3 1.7 995.8 0.0000 1.2000
10:18 6.6 4.3 85 189 0.3 1.7 995.9 0.0000 1.2000
10:28 6.8 4.3 84 164 1.1 3.9 996.3 0.0000 1.2000
10:39 6.8 4.1 83 74 0.8 2.5 996.4 0.0000 1.2000
10:48 6.9 4.2 83 135 0.3 1.1 996.5 0.0000 1.2000
10:58 7.2 4.5 83 113 0.8 2.8 996.7 0.0000 1.2000
11:08 7.2 4.3 82 102 0.8 1.7 996.7 0.0000 1.2000
11:19 7.4 4.5 82 90 0.8 2.2 996.8 0.0000 1.2000
11:29 7.5 4.5 81 90 0.3 2.2 996.7 0.0000 1.2000
11:38 7.7 4.7 81 90 0.8 2.5 996.7 0.0000 1.2000
11:49 7.9 4.8 81 184 0.8 2.5 996.8 0.0000 1.2000
11:59 8.2 5.1 81 191 1.1 2.5 996.7 0.0000 1.2000
12:09 8.5 5.4 81 178 0.8 2.2 996.7 0.0000 1.2000
12:19 8.8 5.5 80 158 0.8 1.7 997 0.0000 1.2000
12:29 9.1 5.7 79 169 1.1 2.8 997 0.0000 1.2000
12:36 9.4 5.8 78 199 1.1 4.4 997.1 0.0000 1.2000
12:47 9.5 5.3 75 170 0.8 2.2 997.4 0.0000 1.2000
12:57 9.6 5.4 75 75 0.8 1.7 997.5 0.0000 1.2000
13:06 9.9 5.7 75 186 1.1 2.8 997.5 0.0000 1.2000
13:17 10 5.8 75 205 0.8 2.2 997.6 0.0000 1.2000
13:27 10 5.6 74 59 0.3 1.7 997.7 0.0000 1.2000
13:37 10 5.4 73 167 1.1 3.1 997.7 0.0000 1.2000
13:47 10 5.8 75 180 0.8 1.7 997.7 0.0000 1.2000
13:57 10.1 5.5 73 214 0.8 2.2 997.6 0.0000 1.2000
14:07 10.1 5.3 72 90 0.8 2.8 997.9 0.0000 1.2000
14:17 10.1 5.3 72 135 0.3 1.4 997.9 0.0000 1.2000
14:28 10.2 5.4 72 209 0.8 2.2 998.1 0.0000 1.2000
14:37 10.4 5.4 71 201 0.8 1.7 998.2 0.0000 1.2000
14:47 10.4 5.4 71 163 0.8 1.7 998.3 0.0000 1.2000
14:57 10.5 5.3 70 127 0.8 2.2 998.3 0.0000 1.2000
15:08 10.6 5.4 70 158 0.8 2.2 998.4 0.0000 1.2000
15:17 10.7 5 68 45 0.3 0.8 998.4 0.0000 1.2000
15:27 10.7 4.8 67 191 0.8 2.2 998.5 0.0000 1.2000
15:38 10.8 5.3 69 191 0.8 2.5 998.5 0.0000 1.2000
15:48 10.8 5.1 68 77 0.8 1.4 998.5 0.0000 1.2000
15:58 10.8 5.1 68 172 0.8 2.2 998.7 0.0000 1.2000
16:08 10.7 4.6 66 135 0.3 1.1 998.4 0.0000 1.2000
16:18 10.6 4.3 65 135 0.3 1.1 998.7 0.0000 1.2000
16:28 10.4 4.1 65 199 1.1 2.5 998.7 0.0000 1.2000
16:38 10.3 3.8 64 199 1.1 2.5 998.7 0.0000 1.2000
16:48 10.1 3.4 63 195 1.1 2.8 998.8 0.0000 1.2000
16:58 10 3.5 64 171 0.8 3.1 998.9 0.0000 1.2000
17:08 9.8 3.3 64 198 0.8 1.7 999.1 0.0000 1.2000
17:18 9.6 3.1 64 225 0.3 1.1 999.1 0.0000 1.2000
17:29 9.2 3.4 67 26 0.3 1.1 999.1 0.0000 1.2000
17:38 8.8 3.2 68 45 0.3 1.1 999.3 0.0000 1.2000
17:48 8.5 3.3 70 35 0.3 1.1 999.3 0.0000 1.2000
17:59 8.1 3 70 21 0.3 1.1 999.5 0.0000 1.2000
18:09 7.8 2.9 71 30 0.3 1.4 999.8 0.0000 1.2000
18:18 7.5 3 73 37 0.3 1.1 999.9 0.0000 1.2000
18:28 7.2 2.9 74 33 0.8 1.4 1000.2 0.0000 1.2000
18:39 7.1 2.8 74 146 0.3 0.8 1000.1 0.0000 1.2000
18:49 6.9 2.8 75 40 0.3 1.1 1000.2 0.0000 1.2000
18:59 6.6 2.7 76 18 0.3 0.8 1000.2 0.0000 1.2000
19:09 6.4 2.7 77 41 0.3 1.1 1000.5 0.0000 1.2000
19:19 6.2 2.5 77 37 0.3 0.8 1000.5 0.0000 1.2000
19:29 5.9 2.4 78 45 0.3 0.8 1000.4 0.0000 1.2000
19:39 5.6 2.1 78 45 0.3 0.8 1000.5 0.0000 1.2000
19:49 5.5 2.2 79 45 0.3 0.8 1000.5 0.0000 1.2000
19:59 5.3 2 79 45 0.3 0.8 1000.6 0.0000 1.2000
20:09 5.2 1.9 79 174 0.3 0.8 1000.7 0.0000 1.2000
20:20 5 1.7 79 40 0.3 1.1 1000.9 0.0000 1.2000
20:30 4.8 1.6 80 90 0.3 0.8 1001 0.0000 1.2000
20:39 4.7 1.5 80 90 0.3 0.8 1001.2 0.0000 1.2000
20:49 4.4 1.3 80 41 0.3 1.1 1001.3 0.0000 1.2000
21:00 4.3 1.3 81 55 0.3 0.8 1001.3 0.0000 1.2000
21:10 4.1 1.1 81 45 0.3 0.8 1001.3 0.0000 1.2000
21:19 4 1 81 45 0.3 0.8 1001.4 0.0000 1.2000
21:30 3.8 0.8 81 45 0.3 0.8 1001.6 0.0000 1.2000
21:40 3.7 0.7 81 45 0.3 0.8 1001.5 0.0000 1.2000
21:50 3.5 0.7 82 50 0.3 1.1 1001.6 0.0000 1.2000
22:00 3.5 0.7 82 0 0.8 1001.8 0.0000 1.2000
22:10 3.5 0.7 82 90 0.3 0.8 1002.1 0.0000 1.2000
22:20 3.6 0.8 82 90 0.3 1.1 1002.1 0.0000 1.2000
22:30 3.5 0.7 82 34 0.3 0.8 1002.3 0.0000 1.2000
22:41 3.5 0.9 83 135 0.3 0.8 1002.3 0.0000 1.2000
22:50 3.5 0.7 82 90 0.3 0.8 1002.2 0.0000 1.2000
23:00 3.4 0.6 82 135 0.3 0.8 1002.4 0.0000 1.2000
23:10 3.4 0.8 83 90 0.3 0.8 1002.3 0.0000 1.2000
23:21 3.3 0.7 83 30 0.3 0.8 1002.4 0.0000 1.2000
23:31 3.2 0.6 83 90 0.3 0.8 1002.5 0.0000 1.2000
23:40 3.1 0.5 83 37 0.3 0.8 1002.5 0.0000 1.2000
23:51 3 0.4 83 52 0.3 0.8 1002.5 0.0000

SATISTIQUES DU JOUR

2020-09-26
TEMPÉRATURE
MOYEN
6.2
MAXI
10.8
15:38
MINI
3.0
23:51
PRESSION
MOYEN
997.4
MAXI
1002.5
23:31
MINI
993.7
03:06
POINT DE ROSÉE
MOYEN
3.0
MAXI
5.8
12:36
MINI
0.4
23:51
HUMIDITÉ
MOYEN
80
MAXI
88
01:25
MINI
63
16:48
LA VITESSE DU VENT
MOYEN
0.5
MAXI
1.1
04:47
WIND GUST
MOYEN
1.7
MAXI
4.4
06:37
DIRECTION DU VENT
PREVAILING
NE
43%
N
2.8
NE
43.0
E
20.4
SE
12.7
S
16.9
SW
2.8
W
0.0
NW
0.0
PRÉCIPITATIONS
RAIN HOUR
0.9
RAIN DAY
1.2
TEMPÉRATURE (°C)
MINI
3.0
MAXI
10.8
MOYEN
6.2
PRESSION (hpa)
MINI
993.7
MAXI
1002.5
MOYEN
997.4
DEVICE